createdAt,value
2023-01-17T00:00:31.540Z,82.15820313
2023-01-17T00:01:26.858Z,82.39550781
2023-01-17T00:02:25.984Z,82.88378906
2023-01-17T00:03:20.444Z,82.80371094
2023-01-17T00:04:20.564Z,82.85839844
2023-01-17T00:06:20.438Z,83.02929688
2023-01-17T00:07:12.180Z,82.65625
2023-01-17T00:08:18.321Z,82.52539063
2023-01-17T00:09:19.379Z,82.57910156
2023-01-17T00:11:16.179Z,82.77246094
2023-01-17T00:12:08.235Z,83.14550781
2023-01-17T00:13:10.620Z,82.92480469
2023-01-17T00:14:05.930Z,83.02441406
2023-01-17T00:15:07.982Z,82.90332031
2023-01-17T00:16:08.147Z,82.95605469
2023-01-17T00:17:06.683Z,83.13378906
2023-01-17T00:18:01.939Z,83.16503906
2023-01-17T00:19:00.103Z,83.2734375
2023-01-17T00:20:05.896Z,83.296875
2023-01-17T00:21:00.844Z,83.48046875
2023-01-17T00:22:02.790Z,83.22949219
2023-01-17T00:23:05.170Z,83.25097656
2023-01-17T00:24:08.155Z,83.07421875
2023-01-17T00:25:05.842Z,83.48144531
2023-01-17T00:26:03.042Z,83.47460938
2023-01-17T00:27:02.134Z,83
2023-01-17T00:28:39.016Z,82.52929688
2023-01-17T00:31:20.967Z,81.07324219
2023-01-17T00:31:47.131Z,80.70117188
2023-01-17T00:32:44.889Z,80.42382813
2023-01-17T00:33:48.338Z,81.05273438
2023-01-17T00:34:43.607Z,80.68554688
2023-01-17T00:36:40.137Z,81.09082031
2023-01-17T00:37:34.420Z,81.31738281
2023-01-17T00:38:34.508Z,81.56445313
2023-01-17T00:39:33.016Z,81.5078125
2023-01-17T00:40:40.708Z,82.02148438
2023-01-17T00:41:41.645Z,82.04589844
2023-01-17T00:42:37.037Z,82.23925781
2023-01-17T00:43:31.856Z,82.18359375
2023-01-17T00:44:46.169Z,82.11328125
2023-01-17T00:45:45.248Z,82.48828125
2023-01-17T00:46:45.421Z,82.54882813
2023-01-17T00:47:45.451Z,82.63769531
2023-01-17T00:48:42.952Z,82.40039063
2023-01-17T00:49:41.678Z,82.24609375
2023-01-17T00:51:41.573Z,82.45800781
2023-01-17T00:52:40.485Z,82.58300781
2023-01-17T00:53:42.140Z,82.203125
2023-01-17T00:54:40.057Z,82.515625
2023-01-17T00:56:35.150Z,82.26269531
2023-01-17T00:57:36.247Z,82.58984375
2023-01-17T00:58:31.653Z,82.7421875
2023-01-17T00:59:37.041Z,83.01953125
2023-01-17T01:00:28.327Z,82.85351563
2023-01-17T01:01:33.428Z,83.12890625
2023-01-17T01:02:28.504Z,83.06152344
2023-01-17T01:03:28.010Z,83.06152344
2023-01-17T01:04:26.105Z,82.8984375
2023-01-17T01:06:18.601Z,82.91503906
2023-01-17T01:07:19.725Z,83.20703125
2023-01-17T01:09:05.648Z,83.16699219
2023-01-17T01:09:26.762Z,82.84570313
2023-01-17T01:10:24.899Z,82.50976563
2023-01-17T01:11:26.665Z,82.09960938
2023-01-17T01:12:24.143Z,81.93164063
2023-01-17T01:13:24.518Z,82.08105469
2023-01-17T01:14:20.339Z,82.21972656
2023-01-17T01:16:28.817Z,82.06835938
2023-01-17T01:17:30.694Z,82.36816406
2023-01-17T01:18:35.156Z,82.24414063
2023-01-17T01:19:34.256Z,82.29199219
2023-01-17T01:20:33.843Z,82.69335938
2023-01-17T01:21:31.386Z,82.75683594
2023-01-17T01:22:31.184Z,82.7421875
2023-01-17T01:23:26.368Z,83.0390625
2023-01-17T01:24:26.278Z,82.90136719
2023-01-17T01:25:28.122Z,82.22363281
2023-01-17T01:26:30.508Z,82.43066406
2023-01-17T01:27:25.730Z,83.12402344
2023-01-17T01:28:28.312Z,82.90917969
2023-01-17T01:29:24.845Z,82.41503906
2023-01-17T01:31:23.843Z,82.36816406
2023-01-17T01:32:24.899Z,81.96875
2023-01-17T01:33:30.595Z,82.42578125
2023-01-17T01:34:38.311Z,82.29003906
2023-01-17T01:36:30.011Z,82.4609375
2023-01-17T01:38:41.689Z,82.13476563
2023-01-17T01:39:02.412Z,82.08789063
2023-01-17T01:40:10.027Z,81.51367188
2023-01-17T01:42:08.168Z,81.046875
2023-01-17T01:43:09.425Z,81.19238281
2023-01-17T01:44:04.785Z,81.3828125
2023-01-17T01:46:05.621Z,81.49902344
2023-01-17T01:47:01.779Z,81.42480469
2023-01-17T01:48:02.902Z,81.40332031
2023-01-17T01:48:57.313Z,80.92871094
2023-01-17T01:49:57.197Z,81.33984375
2023-01-17T01:51:55.325Z,81.3515625
2023-01-17T01:52:47.224Z,81.12597656
2023-01-17T01:53:49.326Z,81.4453125
2023-01-17T01:54:50.414Z,81.78222656
2023-01-17T01:56:54.635Z,81.87597656
2023-01-17T01:57:48.961Z,82.07421875
2023-01-17T01:58:54.959Z,82.13964844
2023-01-17T01:59:53.206Z,82.24707031
2023-01-17T02:00:56.727Z,82.21679688
2023-01-17T02:01:59.973Z,82.05859375
2023-01-17T02:03:05.601Z,81.95214844
2023-01-17T02:03:59.999Z,82.08886719
2023-01-17T02:05:04.714Z,82.00488281
2023-01-17T02:06:07.275Z,82.2890625
2023-01-17T02:06:59.330Z,82.24023438
2023-01-17T02:07:56.232Z,82.29589844
2023-01-17T02:08:58.453Z,82.03515625
2023-01-17T02:09:53.046Z,82.18945313
2023-01-17T02:11:51.723Z,82.29394531
2023-01-17T02:13:28.155Z,81.02148438
2023-01-17T02:14:28.455Z,81.16601563
2023-01-17T02:17:29.501Z,80.63867188
2023-01-17T02:18:22.357Z,80.92675781
2023-01-17T02:19:22.929Z,80.81054688
2023-01-17T02:21:24.121Z,81.1484375
2023-01-17T02:22:26.338Z,81.40429688
2023-01-17T02:24:05.950Z,80.95898438
2023-01-17T02:25:19.047Z,79.65136719
2023-01-17T02:26:16.671Z,78.89355469
2023-01-17T02:27:16.068Z,78.48339844
2023-01-17T02:28:56.020Z,78.70898438
2023-01-17T02:30:38.473Z,78.02832031
2023-01-17T02:32:21.834Z,77.86621094
2023-01-17T02:33:20.402Z,77.55859375
2023-01-17T02:34:20.208Z,78.00292969
2023-01-17T02:36:10.364Z,77.22851563
2023-01-17T02:36:49.557Z,77.609375
2023-01-17T02:37:48.788Z,77.27050781
2023-01-17T02:38:50.273Z,77.44921875
2023-01-17T02:39:48.650Z,77.24902344
2023-01-17T02:40:48.051Z,76.18261719
2023-01-17T02:41:45.001Z,76.08984375
2023-01-17T02:42:44.773Z,75.81347656
2023-01-17T02:43:39.916Z,76.28320313
2023-01-17T02:44:41.165Z,76.90722656
2023-01-17T02:45:39.063Z,76.84179688
2023-01-17T02:46:39.394Z,76.73828125
2023-01-17T02:47:35.722Z,76.82617188
2023-01-17T02:48:40.340Z,77.21582031
2023-01-17T02:49:36.888Z,77.34863281
2023-01-17T02:50:41.004Z,77.54785156
2023-01-17T02:51:38.661Z,77.625
2023-01-17T02:52:35.824Z,78.08984375
2023-01-17T02:53:33.759Z,77.89160156
2023-01-17T02:54:30.977Z,78.04589844
2023-01-17T02:56:32.660Z,78.52050781
2023-01-17T02:57:37.219Z,78.31738281
2023-01-17T02:58:38.694Z,78.39257813
2023-01-17T02:59:35.098Z,78.52734375
2023-01-17T03:00:32.261Z,78.29492188
2023-01-17T03:01:32.568Z,79.00683594
2023-01-17T03:02:29.023Z,78.76074219
2023-01-17T03:03:32.108Z,78.38574219
2023-01-17T03:04:25.735Z,78.29785156
2023-01-17T03:05:28.415Z,78.24316406
2023-01-17T03:06:20.259Z,78.30078125
2023-01-17T03:07:22.592Z,78.54101563
2023-01-17T03:09:06.426Z,78.06738281
2023-01-17T03:09:49.694Z,78.26074219
2023-01-17T03:10:46.207Z,78.44628906
2023-01-17T03:11:56.124Z,78.59570313
2023-01-17T03:12:56.902Z,78.71875
2023-01-17T03:13:54.276Z,78.68457031
2023-01-17T03:14:54.424Z,78.57714844
2023-01-17T03:17:07.696Z,78.74902344
2023-01-17T03:18:00.979Z,78.72558594
2023-01-17T03:18:56.281Z,78.91308594
2023-01-17T03:19:55.797Z,78.9453125
2023-01-17T03:22:02.512Z,79.87304688
2023-01-17T03:22:59.102Z,79.92285156
2023-01-17T03:23:56.976Z,80.47558594
2023-01-17T03:24:56.183Z,80.34863281
2023-01-17T03:25:55.776Z,80.16210938
2023-01-17T03:26:57.301Z,80.45117188
2023-01-17T03:27:50.216Z,81.20507813
2023-01-17T03:28:55.070Z,81.07226563
2023-01-17T03:29:52.411Z,81.01367188
2023-01-17T03:31:54.076Z,81.29199219
2023-01-17T03:34:10.886Z,80.97558594
2023-01-17T03:34:19.077Z,80.49609375
2023-01-17T03:35:19.346Z,80.31738281
2023-01-17T03:36:15.422Z,80.29980469
2023-01-17T03:37:13.422Z,80.39941406
2023-01-17T03:38:15.178Z,80.53515625
2023-01-17T03:39:17.904Z,80.60351563
2023-01-17T03:41:10.066Z,81.02539063
2023-01-17T03:42:11.092Z,80.80371094
2023-01-17T03:43:07.300Z,81.11914063
2023-01-17T03:44:11.075Z,81.359375
2023-01-17T03:46:03.239Z,81.13085938
2023-01-17T03:47:04.319Z,81.84277344
2023-01-17T03:47:56.345Z,81.69824219
2023-01-17T03:48:54.741Z,81.66699219
2023-01-17T03:49:53.803Z,81.23632813
2023-01-17T03:50:49.188Z,80.84863281
2023-01-17T03:51:50.836Z,81.50683594
2023-01-17T03:52:45.201Z,81.375
2023-01-17T03:53:47.722Z,81.87890625
2023-01-17T03:54:42.202Z,81.71191406
2023-01-17T03:55:42.506Z,81.74316406
2023-01-17T03:56:41.238Z,82.16308594
2023-01-17T03:57:44.780Z,82.50976563
2023-01-17T03:58:40.358Z,82.03613281
2023-01-17T03:59:42.931Z,82.23339844
2023-01-17T04:00:38.449Z,82.27441406
2023-01-17T04:02:24.898Z,81.81640625
2023-01-17T04:03:05.369Z,81.77539063
2023-01-17T04:04:15.773Z,81.42675781
2023-01-17T04:05:13.523Z,81.65234375
2023-01-17T04:06:13.847Z,81.76464844
2023-01-17T04:07:08.416Z,82.09277344
2023-01-17T04:08:09.572Z,82.15820313
2023-01-17T04:09:11.832Z,81.93945313
2023-01-17T04:10:10.356Z,82.32617188
2023-01-17T04:11:11.419Z,82.18164063
2023-01-17T04:12:07.495Z,81.72460938
2023-01-17T04:13:15.481Z,81.57128906
2023-01-17T04:14:10.526Z,81.56152344
2023-01-17T04:16:11.764Z,80.92382813
2023-01-17T04:17:14.180Z,81.31445313
2023-01-17T04:18:14.891Z,81.41699219
2023-01-17T04:19:09.292Z,81.33398438
2023-01-17T04:20:14.722Z,81.50878906
2023-01-17T04:21:06.770Z,81.34179688
2023-01-17T04:22:02.217Z,81.29589844
2023-01-17T04:23:01.617Z,80.87207031
2023-01-17T04:23:59.714Z,80.64257813
2023-01-17T04:25:58.624Z,80.52832031
2023-01-17T04:27:01.224Z,80.61621094
2023-01-17T04:28:04.098Z,80.61425781
2023-01-17T04:29:06.662Z,80.69042969
2023-01-17T04:31:05.104Z,81.05175781
2023-01-17T04:32:01.893Z,81.16894531
2023-01-17T04:32:54.730Z,81.30175781
2023-01-17T04:33:59.044Z,81.53222656
2023-01-17T04:34:50.982Z,81.11425781
2023-01-17T04:37:11.414Z,81.34472656
2023-01-17T04:37:17.112Z,81.18066406
2023-01-17T04:38:18.718Z,80.8203125
2023-01-17T04:39:18.703Z,80.92089844
2023-01-17T04:41:17.430Z,81.31445313
2023-01-17T04:42:11.952Z,81.64941406
2023-01-17T04:43:11.479Z,81.98730469
2023-01-17T04:44:05.886Z,81.42285156
2023-01-17T04:45:59.887Z,81.56933594
2023-01-17T04:47:05.664Z,81.85351563
2023-01-17T04:47:59.090Z,81.54296875
2023-01-17T04:49:02.934Z,81.32421875
2023-01-17T04:51:00.528Z,81.13769531
2023-01-17T04:52:05.781Z,81.25878906
2023-01-17T04:53:03.455Z,81.27929688
2023-01-17T04:54:02.972Z,81.4921875
2023-01-17T04:55:58.376Z,81.16210938
2023-01-17T04:56:54.943Z,81.44628906
2023-01-17T04:57:54.002Z,81.15820313
2023-01-17T04:59:00.117Z,81.52734375
2023-01-17T04:59:57.241Z,81.63476563
2023-01-17T05:01:01.688Z,81.61816406
2023-01-17T05:02:00.657Z,81.56738281
2023-01-17T05:03:40.067Z,81.59179688
2023-01-17T05:08:09.476Z,79.89550781
2023-01-17T05:08:18.991Z,79.71386719
2023-01-17T05:09:19.142Z,79.47070313
2023-01-17T05:11:22.823Z,78.97949219
2023-01-17T05:12:18.341Z,79.09863281
2023-01-17T05:13:19.468Z,79.421875
2023-01-17T05:14:23.031Z,79.42871094
2023-01-17T05:15:16.360Z,79.61816406
2023-01-17T05:16:15.329Z,79.73144531
2023-01-17T05:17:11.646Z,80.015625
2023-01-17T05:18:12.439Z,80.01660156
2023-01-17T05:19:08.323Z,80.18945313
2023-01-17T05:20:07.556Z,80.39648438
2023-01-17T05:21:01.866Z,80.41015625
2023-01-17T05:22:02.193Z,80.88671875
2023-01-17T05:23:07.694Z,81.00292969
2023-01-17T05:24:11.639Z,80.88378906
2023-01-17T05:26:03.327Z,79.93945313
2023-01-17T05:27:01.562Z,80.03613281
2023-01-17T05:28:02.205Z,80.63085938
2023-01-17T05:28:58.288Z,79.96777344
2023-01-17T05:31:03.358Z,79.83300781
2023-01-17T05:32:04.805Z,79.61328125
2023-01-17T05:33:12.700Z,79.34960938
2023-01-17T05:34:14.626Z,79.36035156
2023-01-17T05:36:10.778Z,79.91308594
2023-01-17T05:37:13.514Z,80.38867188
2023-01-17T05:38:12.801Z,80.54980469
2023-01-17T05:39:12.668Z,80.66308594
2023-01-17T05:42:17.647Z,80.65234375
2023-01-17T05:42:38.350Z,80.16210938
2023-01-17T05:43:38.346Z,79.68554688
2023-01-17T05:43:52.365Z,79.47070313
2023-01-17T05:44:53.502Z,79.80566406
2023-01-17T05:45:54.673Z,79.96582031
2023-01-17T05:46:49.836Z,80.20410156
2023-01-17T05:47:49.553Z,80.18359375
2023-01-17T05:48:48.587Z,80.42578125
2023-01-17T05:49:49.978Z,80.53125
2023-01-17T05:51:01.250Z,80.21484375
2023-01-17T05:51:54.949Z,80.67285156
2023-01-17T05:52:52.933Z,80.50488281
2023-01-17T05:53:53.928Z,80.27734375
2023-01-17T05:54:55.767Z,80.70800781
2023-01-17T05:55:48.198Z,80.8359375
2023-01-17T05:56:49.885Z,81.1171875
2023-01-17T05:57:45.176Z,81.07324219
2023-01-17T05:58:47.166Z,80.65332031
2023-01-17T05:59:41.415Z,80.99609375
2023-01-17T06:01:38.300Z,81.35351563
2023-01-17T06:02:39.794Z,81.46679688
2023-01-17T06:03:41.098Z,81.59667969
2023-01-17T06:04:43.273Z,81.35644531
2023-01-17T06:06:50.211Z,81.63183594
2023-01-17T06:07:52.451Z,82.12304688
2023-01-17T06:08:45.383Z,81.35839844
2023-01-17T06:09:48.093Z,81.65820313
2023-01-17T06:11:45.054Z,81.02734375
2023-01-17T06:12:39.270Z,81.33203125
2023-01-17T06:13:36.010Z,81.33300781
2023-01-17T06:14:37.014Z,81.2265625
2023-01-17T06:15:34.313Z,81.15722656
2023-01-17T06:16:33.823Z,80.94824219
2023-01-17T06:18:14.353Z,81.29003906
2023-01-17T06:18:47.974Z,81.68164063
2023-01-17T06:19:48.586Z,80.82910156
2023-01-17T06:20:43.788Z,80.13769531
2023-01-17T06:21:48.277Z,80.66796875
2023-01-17T06:22:51.284Z,80.67382813
2023-01-17T06:23:52.528Z,80.88671875
2023-01-17T06:24:53.838Z,81.09375
2023-01-17T06:27:00.430Z,81.0234375
2023-01-17T06:27:57.768Z,81.1484375
2023-01-17T06:29:08.574Z,80.88183594
2023-01-17T06:29:57.728Z,80.51953125
2023-01-17T06:30:52.385Z,80.09667969
2023-01-17T06:31:56.410Z,80.07714844
2023-01-17T06:32:52.992Z,80.38476563
2023-01-17T06:33:55.123Z,80.20703125
2023-01-17T06:34:50.891Z,80.7109375
2023-01-17T06:36:51.248Z,80.93554688
2023-01-17T06:37:52.992Z,81.29101563
2023-01-17T06:38:49.377Z,81.06933594
2023-01-17T06:39:55.697Z,81.20117188
2023-01-17T06:41:52.187Z,81.40820313
2023-01-17T06:42:47.630Z,81.33203125
2023-01-17T06:43:49.785Z,81.14648438
2023-01-17T06:44:43.042Z,81.15722656
2023-01-17T06:46:49.023Z,80.90039063
2023-01-17T06:47:47.753Z,80.58300781
2023-01-17T06:49:55.990Z,80.53808594
2023-01-17T06:50:03.448Z,80.75878906
2023-01-17T06:51:05.740Z,80.31152344
2023-01-17T06:52:06.151Z,79.67871094
2023-01-17T06:53:09.519Z,79.47851563
2023-01-17T06:54:04.849Z,79.625
2023-01-17T06:56:11.823Z,79.91601563
2023-01-17T06:57:08.620Z,80.03027344
2023-01-17T06:58:11.184Z,79.90722656
2023-01-17T06:59:13.847Z,80.20996094
2023-01-17T07:01:15.126Z,81.125
2023-01-17T07:02:17.915Z,81.12890625
2023-01-17T07:03:20.620Z,81.17382813
2023-01-17T07:04:15.972Z,81.18652344
2023-01-17T07:06:24.967Z,80.90429688
2023-01-17T07:07:21.870Z,80.95410156
2023-01-17T07:08:27.859Z,80.57519531
2023-01-17T07:09:27.017Z,80.47070313
2023-01-17T07:11:30.730Z,80.05078125
2023-01-17T07:12:25.634Z,80.23730469
2023-01-17T07:13:31.255Z,79.67382813
2023-01-17T07:14:26.183Z,80.33300781
2023-01-17T07:15:52.492Z,80.56445313
2023-01-17T07:16:38.464Z,80.48144531
2023-01-17T07:17:46.322Z,80.23925781
2023-01-17T07:18:46.394Z,80.3125
2023-01-17T07:19:44.418Z,80.52050781
2023-01-17T07:21:42.342Z,80.69824219
2023-01-17T07:22:42.290Z,81.06738281
2023-01-17T07:23:37.788Z,81.12304688
2023-01-17T07:24:40.576Z,81.15527344
2023-01-17T07:25:36.178Z,81.48046875
2023-01-17T07:26:47.843Z,82.08886719
2023-01-17T07:27:39.505Z,82.12890625
2023-01-17T07:28:36.394Z,81.67578125
2023-01-17T07:29:54.350Z,81.82226563
2023-01-17T07:30:52.654Z,81.41601563
2023-01-17T07:32:02.792Z,81.57910156
2023-01-17T07:32:58.081Z,81.4453125
2023-01-17T07:33:56.455Z,81.34179688
2023-01-17T07:35:01.551Z,81.80273438
2023-01-17T07:36:00.722Z,82.2265625
2023-01-17T07:36:58.333Z,81.46679688
2023-01-17T07:37:59.198Z,81.73242188
2023-01-17T07:38:59.741Z,81.91015625
2023-01-17T07:40:03.322Z,82.17675781
2023-01-17T07:41:04.939Z,81.84863281
2023-01-17T07:42:15.351Z,81.8359375
2023-01-17T07:43:08.817Z,82.18652344
2023-01-17T07:44:07.398Z,82.20800781
2023-01-17T07:46:11.279Z,82.10351563
2023-01-17T07:47:16.014Z,81.89160156
2023-01-17T07:48:08.574Z,81.8359375
2023-01-17T07:49:47.538Z,81.92382813
2023-01-17T07:51:39.413Z,81.55761719
2023-01-17T07:52:25.498Z,80.87304688
2023-01-17T07:53:24.566Z,80.73730469
2023-01-17T07:54:21.149Z,80.74707031
2023-01-17T07:55:21.807Z,80.78125
2023-01-17T07:56:20.973Z,80.80078125
2023-01-17T07:57:24.863Z,80.78515625
2023-01-17T07:58:21.025Z,81.36914063
2023-01-17T07:59:22.238Z,81.0234375
2023-01-17T08:01:19.353Z,80.86425781
2023-01-17T08:02:16.867Z,81.24707031
2023-01-17T08:03:19.922Z,81.45800781
2023-01-17T08:04:18.116Z,81.65429688
2023-01-17T08:06:23.284Z,81.14257813
2023-01-17T08:07:24.497Z,81.7890625
2023-01-17T08:08:24.744Z,82.13378906
2023-01-17T08:09:31.947Z,81.84472656
2023-01-17T08:10:39.900Z,81.86328125
2023-01-17T08:11:40.457Z,81.90722656
2023-01-17T08:12:41.442Z,82.08691406
2023-01-17T08:13:45.919Z,81.57324219
2023-01-17T08:14:43.345Z,81.71386719
2023-01-17T08:15:41.044Z,81.60058594
2023-01-17T08:16:40.628Z,81.82421875
2023-01-17T08:17:44.121Z,81.90234375
2023-01-17T08:18:43.712Z,82.21191406
2023-01-17T08:19:48.105Z,81.984375
2023-01-17T08:21:45.253Z,81.63085938
2023-01-17T08:22:44.235Z,81.4453125
2023-01-17T08:23:43.828Z,81.04980469
2023-01-17T08:24:46.392Z,80.99316406
2023-01-17T08:27:15.255Z,81.15722656
2023-01-17T08:28:13.014Z,81.00390625
2023-01-17T08:29:17.372Z,80.93066406
2023-01-17T08:30:51.718Z,80.02929688
2023-01-17T08:33:15.036Z,77.74804688
2023-01-17T08:34:06.909Z,77.58789063
2023-01-17T08:36:01.056Z,77.93066406
2023-01-17T08:36:59.769Z,77.58789063
2023-01-17T08:37:02.403Z,77.81640625
2023-01-17T08:37:55.201Z,77.66699219
2023-01-17T08:38:53.296Z,78.61132813
2023-01-17T08:40:02.299Z,78.90039063
2023-01-17T08:40:53.525Z,78.86425781
2023-01-17T08:41:55.399Z,78.25488281
2023-01-17T08:42:51.898Z,78.55859375
2023-01-17T08:43:50.461Z,78.05566406
2023-01-17T08:45:53.942Z,78.2734375
2023-01-17T08:46:48.160Z,77.85644531
2023-01-17T08:47:51.461Z,78.4140625
2023-01-17T08:48:48.508Z,78.35644531
2023-01-17T08:50:45.743Z,78.23046875
2023-01-17T08:51:47.328Z,78.6796875
2023-01-17T08:52:45.351Z,78.58691406
2023-01-17T08:53:47.029Z,78.8515625
2023-01-17T08:54:42.563Z,79.33789063
2023-01-17T08:55:51.911Z,79.74511719
2023-01-17T08:56:43.171Z,79.79003906
2023-01-17T08:57:42.295Z,79.16601563
2023-01-17T08:58:42.551Z,79.61621094
2023-01-17T08:59:38.319Z,79.74023438
2023-01-17T09:01:40.469Z,79.84375
2023-01-17T09:03:10.640Z,79.18164063
2023-01-17T09:03:50.711Z,79.3359375
2023-01-17T09:04:48.820Z,80.06933594
2023-01-17T09:05:52.816Z,80.70214844
2023-01-17T09:06:50.271Z,80.15625
2023-01-17T09:07:53.820Z,80.51757813
2023-01-17T09:08:51.970Z,80.3125
2023-01-17T09:10:58.929Z,80.73730469
2023-01-17T09:11:55.718Z,80.51464844
2023-01-17T09:12:55.390Z,80.64453125
2023-01-17T09:13:55.878Z,80.69628906
2023-01-17T09:15:00.289Z,80.83105469
2023-01-17T09:15:54.525Z,81.00683594
2023-01-17T09:16:59.185Z,80.55859375
2023-01-17T09:17:54.548Z,80.63671875
2023-01-17T09:18:55.598Z,80.49609375
2023-01-17T09:19:55.629Z,81.07226563
2023-01-17T09:20:53.145Z,80.47167969
2023-01-17T09:22:00.725Z,80.36035156
2023-01-17T09:22:51.432Z,81.59472656
2023-01-17T09:23:52.066Z,81.39257813
2023-01-17T09:24:53.694Z,81.09765625
2023-01-17T09:25:48.949Z,81.15527344
2023-01-17T09:26:51.308Z,81.265625
2023-01-17T09:27:49.535Z,81.58105469
2023-01-17T09:29:13.359Z,81.26367188
2023-01-17T09:30:57.884Z,80.96289063
2023-01-17T09:31:58.882Z,80.88769531
2023-01-17T09:33:01.115Z,81.13964844
2023-01-17T09:33:55.861Z,80.6015625
2023-01-17T09:34:57.705Z,80.88867188
2023-01-17T09:35:56.245Z,80.66308594
2023-01-17T09:37:00.255Z,80.38867188
2023-01-17T09:37:59.766Z,80.65234375
2023-01-17T09:39:00.712Z,80.78515625
2023-01-17T09:40:58.419Z,80.64453125
2023-01-17T09:42:01.763Z,80.99121094
2023-01-17T09:42:55.465Z,80.81640625
2023-01-17T09:43:59.633Z,81.14453125
2023-01-17T09:44:52.222Z,80.8984375
2023-01-17T09:45:54.523Z,80.60546875
2023-01-17T09:46:49.820Z,80.61523438
2023-01-17T09:47:52.883Z,80.25878906
2023-01-17T09:48:50.217Z,80.5859375
2023-01-17T09:50:48.164Z,80.22851563
2023-01-17T09:51:50.959Z,80.44824219
2023-01-17T09:52:48.932Z,80.30859375
2023-01-17T09:53:51.836Z,80.58007813
2023-01-17T09:54:52.518Z,80.55078125
2023-01-17T09:55:46.964Z,80.58886719
2023-01-17T09:56:46.756Z,80.58984375
2023-01-17T09:57:43.152Z,80.52929688
2023-01-17T09:58:44.586Z,79.875
2023-01-17T09:59:45.672Z,80.23242188
2023-01-17T10:01:41.585Z,80.40527344
2023-01-17T10:02:42.164Z,80.54199219
2023-01-17T10:03:37.707Z,80.51074219
2023-01-17T10:04:38.752Z,80.31738281
2023-01-17T10:06:37.031Z,79.86035156
2023-01-17T10:07:33.279Z,79.72070313
2023-01-17T10:09:23.076Z,79.27734375
2023-01-17T10:10:06.076Z,78.87011719
2023-01-17T10:11:05.258Z,78.36425781
2023-01-17T10:12:06.696Z,78.79980469
2023-01-17T10:13:01.975Z,78.59960938
2023-01-17T10:14:02.573Z,78.57421875
2023-01-17T10:15:04.550Z,78.83007813
2023-01-17T10:16:03.972Z,79.10644531
2023-01-17T10:17:04.315Z,79.49707031
2023-01-17T10:18:07.000Z,79.14550781
2023-01-17T10:19:03.960Z,78.70214844
2023-01-17T10:19:58.246Z,78.95800781
2023-01-17T10:21:03.863Z,79.1015625
2023-01-17T10:22:02.069Z,79.02441406
2023-01-17T10:23:00.203Z,79.16796875
2023-01-17T10:23:59.369Z,80.17578125
2023-01-17T10:25:59.362Z,80.74804688
2023-01-17T10:26:57.632Z,80.3046875
2023-01-17T10:28:02.549Z,80.64550781
2023-01-17T10:28:55.688Z,81.21289063
2023-01-17T10:30:55.020Z,80.70800781
2023-01-17T10:32:04.640Z,81.28125
2023-01-17T10:32:53.163Z,80.99609375
2023-01-17T10:33:57.471Z,80.66113281
2023-01-17T10:35:57.726Z,78.86132813
2023-01-17T10:37:05.061Z,78.68066406
2023-01-17T10:38:30.671Z,79.72167969
2023-01-17T10:39:11.303Z,80.24316406
2023-01-17T10:41:09.130Z,81.06347656
2023-01-17T10:42:08.633Z,80.69335938
2023-01-17T10:43:11.171Z,80.53417969
2023-01-17T10:44:07.463Z,80.61132813
2023-01-17T10:46:05.817Z,80.13183594
2023-01-17T10:47:06.337Z,79.74609375
2023-01-17T10:48:02.374Z,78.76953125
2023-01-17T10:49:03.389Z,79.05566406
2023-01-17T10:51:01.668Z,79.3203125
2023-01-17T10:51:59.170Z,79.26171875
2023-01-17T10:52:59.689Z,79.15332031
2023-01-17T10:53:57.754Z,78.12207031
2023-01-17T10:54:57.084Z,78.93652344
2023-01-17T10:55:53.273Z,79.36914063
2023-01-17T10:57:00.610Z,78.796875
2023-01-17T10:57:56.358Z,78.48828125
2023-01-17T10:58:58.184Z,79.04882813
2023-01-17T10:59:53.570Z,79.12988281
2023-01-17T11:00:56.818Z,78.99511719
2023-01-17T11:02:11.588Z,78.96679688
2023-01-17T11:03:15.044Z,78.20117188
2023-01-17T11:04:11.261Z,77.8125
2023-01-17T11:06:10.155Z,78.05664063
2023-01-17T11:07:11.814Z,76.98828125
2023-01-17T11:08:18.030Z,78.50976563
2023-01-17T11:09:11.497Z,78.69921875
2023-01-17T11:10:13.973Z,78.63574219
2023-01-17T11:11:10.472Z,78.08496094
2023-01-17T11:12:13.758Z,78.00195313
2023-01-17T11:13:09.868Z,77.05957031
2023-01-17T11:14:12.974Z,76.91796875
2023-01-17T11:15:07.328Z,78.46777344
2023-01-17T11:16:08.621Z,78.4296875
2023-01-17T11:17:12.085Z,77.71191406
2023-01-17T11:18:15.222Z,78.49414063
2023-01-17T11:19:17.738Z,77.61816406
2023-01-17T11:21:46.722Z,77.85253906
2023-01-17T11:24:08.881Z,76.39160156
2023-01-17T11:24:48.202Z,76.62011719
2023-01-17T11:25:53.741Z,77.06640625
2023-01-17T11:26:52.965Z,76.73242188
2023-01-17T11:27:50.183Z,76.1640625
2023-01-17T11:28:55.050Z,77.06445313
2023-01-17T11:30:54.649Z,74.54101563
2023-01-17T11:31:51.957Z,75.41015625
2023-01-17T11:32:52.562Z,75.03320313
2023-01-17T11:33:56.558Z,76.50878906
2023-01-17T11:34:51.894Z,76.96679688
2023-01-17T11:35:53.952Z,76.11328125
2023-01-17T11:36:53.973Z,74.99511719
2023-01-17T11:37:55.967Z,75.58203125
2023-01-17T11:38:54.236Z,75.06933594
2023-01-17T11:39:24.008Z,76.10058594
2023-01-17T11:40:24.913Z,77.08789063
2023-01-17T11:41:16.757Z,77.69140625
2023-01-17T11:42:18.472Z,75.62304688
2023-01-17T11:43:17.063Z,75.40234375
2023-01-17T11:44:19.864Z,76.3046875
2023-01-17T11:46:14.125Z,76.16113281
2023-01-17T11:47:09.724Z,75.55957031
2023-01-17T11:48:10.941Z,76.30078125
2023-01-17T11:49:06.334Z,76.11523438
2023-01-17T11:50:08.575Z,76.79199219
2023-01-17T11:51:03.589Z,76.66894531
2023-01-17T11:52:02.871Z,76.72558594
2023-01-17T11:52:58.272Z,76.61230469
2023-01-17T11:54:11.852Z,75.16503906
2023-01-17T11:55:41.167Z,75.31835938
2023-01-17T11:56:19.322Z,72.79492188
2023-01-17T11:57:16.619Z,72.453125
2023-01-17T11:58:14.728Z,72.95703125
2023-01-17T11:59:16.261Z,74.5078125
2023-01-17T12:00:16.282Z,74.85644531
2023-01-17T12:01:12.875Z,74.54003906
2023-01-17T12:02:16.943Z,75.13574219
2023-01-17T12:03:16.173Z,74.32226563
2023-01-17T12:04:16.374Z,75.015625
2023-01-17T12:06:11.584Z,76.01074219
2023-01-17T12:07:11.340Z,76.10839844
2023-01-17T12:08:08.839Z,75.89746094
2023-01-17T12:09:08.431Z,76.31835938
2023-01-17T12:10:05.168Z,75.8046875
2023-01-17T12:11:08.274Z,77.29199219
2023-01-17T12:12:05.503Z,76.84863281
2023-01-17T12:13:01.391Z,74.63378906
2023-01-17T12:14:08.589Z,75.11523438
2023-01-17T12:16:02.305Z,74.89355469
2023-01-17T12:17:05.414Z,75.09765625
2023-01-17T12:18:14.340Z,74.37304688
2023-01-17T12:19:18.730Z,73.8125